You are not logged in, Click here to log in
峴港國際機場 DAD / VVDN Duy Tân, Hòa Thuận Tây, Quận Hải Châu, Đà Nẵng, 越南
ICAO: VVDN Country: Duy Tân, Hòa Thuận Tây, Quận Hải Châu, Đà Nẵng, 越南
Latitude: 16.0553 Longitude: 108.201
Total Arrivals: 6 Total Departures: 3
Latest Arrival: VN161 (VVNB-VVDN)Stone. Chang Latest Departure: FE302 (VVDN-RCTP)CHUANYI. Lin
Scenery:
METAR : VVDN 090730Z 35011KT 8000 FEW015 BKN060 23/15 Q1018 NOSIG

峴港國際機場 DAD

You are accessing this site from IP address 100.26.176.182. Virtual Airline. CMS by phpVMS.Website designed by Zumeweb and edited by Theo Bearman.
There is 0 User(s) Online: | and 10 Guest(s) Online.
All information on this site is for fight simulation purposes only. This site is for flight logging for pilots of Virtual Airline&模擬飛行論壇 FlySim only.